Time;durP1;ratioP1;P1;durP2;ratioP2;P2;SDS_P1;SDS_P2;PMS_P1;PMS_P2;Temp;Humidity;BMP_temperature;BMP_pressure;BME280_temperature;BME280_humidity;BME280_pressure;Samples;Min_cycle;Max_cycle;Signal;HPM_P1;HPM_P2
2022/06/22 00:02:03;;;;;;;3.13;1.77;;;;;;;;;;5027229;28;20029;-61
2022/06/22 00:04:36;;;;;;;3.25;1.77;;;;;;;;;;5024684;28;20388;-60
2022/06/22 00:07:04;;;;;;;5.03;1.85;;;;;;;;;;5028673;28;20037;-61
2022/06/22 00:09:35;;;;;;;6.90;2.08;;;;;;;;;;5030136;28;20033;-59
2022/06/22 00:12:01;;;;;;;6.68;2.00;;;;;;;;;;5028182;28;20068;-61
2022/06/22 00:14:30;;;;;;;5.38;1.80;;;;;;;;;;5029409;28;20099;-61
2022/06/22 00:16:56;;;;;;;2.75;1.55;;;;;;;;;;5026083;28;20120;-61
2022/06/22 00:19:25;;;;;;;4.25;1.83;;;;;;;;;;5029655;28;20401;-61
2022/06/22 00:21:51;;;;;;;3.63;2.08;;;;;;;;;;5029809;28;20034;-61
2022/06/22 00:24:23;;;;;;;4.10;2.15;;;;;;;;;;5036026;28;20382;-61
2022/06/22 00:26:57;;;;;;;3.60;1.92;;;;;;;;;;5024571;28;20068;-61
2022/06/22 00:29:25;;;;;;;2.95;2.00;;;;;;;;;;5030647;28;20511;-61
2022/06/22 00:31:51;;;;;;;5.00;1.90;;;;;;;;;;5030085;28;20112;-59
2022/06/22 00:34:22;;;;;;;5.75;2.00;;;;;;;;;;5030999;28;20032;-60
2022/06/22 00:37:02;;;;;;;2.42;1.77;;;;;;;;;;5030761;28;20638;-61
2022/06/22 00:39:30;;;;;;;3.85;1.70;;;;;;;;;;5029034;28;20029;-60
2022/06/22 00:42:14;;;;;;;3.72;1.65;;;;;;;;;;5030259;28;20118;-61
2022/06/22 00:44:48;;;;;;;2.10;1.60;;;;;;;;;;5029225;28;20042;-61
2022/06/22 00:47:23;;;;;;;5.10;2.00;;;;;;;;;;5029949;28;20117;-61
2022/06/22 00:49:49;;;;;;;4.65;1.98;;;;;;;;;;5030439;28;20489;-61
2022/06/22 00:52:20;;;;;;;4.72;1.70;;;;;;;;;;5028267;28;20026;-61
2022/06/22 00:54:46;;;;;;;2.75;1.70;;;;;;;;;;5029818;28;20029;-61
2022/06/22 00:57:21;;;;;;;4.57;1.80;;;;;;;;;;5027727;28;20017;-60
2022/06/22 00:59:50;;;;;;;4.10;2.05;;;;;;;;;;5026398;28;20424;-61
2022/06/22 01:02:30;;;;;;;3.08;1.88;;;;;;;;;;5030652;28;20508;-56
2022/06/22 01:05:01;;;;;;;2.28;1.70;;;;;;;;;;5017655;28;20030;-58
2022/06/22 01:07:30;;;;;;;3.88;2.05;;;;;;;;;;5029726;28;20485;-57
2022/06/22 01:10:00;;;;;;;6.95;2.13;;;;;;;;;;5031340;28;20029;-56
2022/06/22 01:12:32;;;;;;;5.07;2.15;;;;;;;;;;5024076;28;20030;-56
2022/06/22 01:15:16;;;;;;;4.75;2.10;;;;;;;;;;5034299;28;20033;-56
2022/06/22 01:18:02;;;;;;;7.40;1.75;;;;;;;;;;5030642;28;20043;-56
2022/06/22 01:20:55;;;;;;;2.75;1.65;;;;;;;;;;5030609;28;20025;-58
2022/06/22 01:23:21;;;;;;;5.77;2.10;;;;;;;;;;5029361;28;20332;-55
2022/06/22 01:25:51;;;;;;;4.78;1.63;;;;;;;;;;5031770;28;20057;-58
2022/06/22 01:28:18;;;;;;;3.38;2.00;;;;;;;;;;5032250;28;20030;-57
2022/06/22 01:30:51;;;;;;;5.13;2.28;;;;;;;;;;5031171;28;20017;-58
2022/06/22 01:33:34;;;;;;;3.67;2.00;;;;;;;;;;5032607;28;20387;-57
2022/06/22 01:36:00;;;;;;;;;;;;;;;;;;5029431;28;20447;-59
2022/06/22 01:38:28;;;;;;;4.10;1.77;;;;;;;;;;5033028;28;19933;-57
2022/06/22 01:41:01;;;;;;;4.68;1.92;;;;;;;;;;5032819;28;20030;-59
2022/06/22 01:43:30;;;;;;;2.17;1.80;;;;;;;;;;5033386;28;20037;-58
2022/06/22 01:46:00;;;;;;;4.07;2.15;;;;;;;;;;5031182;28;20060;-57
2022/06/22 01:48:26;;;;;;;2.65;1.67;;;;;;;;;;5031769;28;20029;-57
2022/06/22 01:50:56;;;;;;;4.43;2.20;;;;;;;;;;5030227;28;20028;-57
2022/06/22 01:53:25;;;;;;;4.40;1.90;;;;;;;;;;5027202;28;20036;-57
2022/06/22 01:56:00;;;;;;;4.85;1.90;;;;;;;;;;5040799;28;20037;-57
2022/06/22 01:58:32;;;;;;;7.85;2.05;;;;;;;;;;5032885;28;20492;-56
2022/06/22 02:01:00;;;;;;;3.75;2.17;;;;;;;;;;5031889;28;20021;-56
2022/06/22 02:03:37;;;;;;;2.35;1.65;;;;;;;;;;5027236;28;20033;-57
2022/06/22 02:09:10;;;;;;;4.28;1.98;;;;;;;;;;4967136;28;20039;-56
2022/06/22 02:11:38;;;;;;;5.07;1.92;;;;;;;;;;5026375;28;20025;-58
2022/06/22 02:14:09;;;;;;;2.55;1.75;;;;;;;;;;5032822;28;20030;-57
2022/06/22 02:16:37;;;;;;;5.10;1.92;;;;;;;;;;5030954;28;20036;-56
2022/06/22 02:19:03;;;;;;;4.72;2.00;;;;;;;;;;5030390;28;21668;-57
2022/06/22 02:21:36;;;;;;;3.53;2.10;;;;;;;;;;5031284;28;20025;-57
2022/06/22 02:24:17;;;;;;;6.45;2.22;;;;;;;;;;5036087;28;20052;-57
2022/06/22 02:26:52;;;;;;;5.85;2.08;;;;;;;;;;5036345;28;20046;-57
2022/06/22 02:29:21;;;;;;;2.97;1.98;;;;;;;;;;5029459;28;20026;-56
2022/06/22 02:31:47;;;;;;;2.05;1.85;;;;;;;;;;5029683;28;20471;-57
2022/06/22 02:34:16;;;;;;;4.40;1.95;;;;;;;;;;5029490;28;20611;-56
2022/06/22 02:36:44;;;;;;;6.40;1.98;;;;;;;;;;5032077;28;20480;-57
2022/06/22 02:39:11;;;;;;;3.83;2.33;;;;;;;;;;5032430;28;20391;-58
2022/06/22 02:44:30;;;;;;;3.55;1.95;;;;;;;;;;5023774;28;20048;-56
2022/06/22 02:47:18;;;;;;;2.90;2.00;;;;;;;;;;5030534;28;20564;-57
2022/06/22 02:49:53;;;;;;;3.00;2.10;;;;;;;;;;5030779;28;20103;-56
2022/06/22 02:52:21;;;;;;;4.60;1.80;;;;;;;;;;5026177;28;20379;-57
2022/06/22 02:54:54;;;;;;;3.45;1.98;;;;;;;;;;5030335;28;20030;-58
2022/06/22 02:57:39;;;;;;;3.90;2.08;;;;;;;;;;5030712;28;20053;-58
2022/06/22 03:00:06;;;;;;;6.13;2.17;;;;;;;;;;5031117;28;20030;-57
2022/06/22 03:02:33;;;;;;;3.88;2.30;;;;;;;;;;5028898;28;20029;-59
2022/06/22 03:05:00;;;;;;;6.30;2.50;;;;;;;;;;5027336;28;20037;-57
2022/06/22 03:07:26;;;;;;;3.97;2.28;;;;;;;;;;5028451;28;20484;-57
2022/06/22 03:09:53;;;;;;;3.80;1.98;;;;;;;;;;5031208;28;20104;-58
2022/06/22 03:12:19;;;;;;;4.95;2.28;;;;;;;;;;5031712;28;20025;-59
2022/06/22 03:14:49;;;;;;;4.10;2.00;;;;;;;;;;5030834;28;20581;-56
2022/06/22 03:17:17;;;;;;;5.22;2.25;;;;;;;;;;5029720;28;20029;-57
2022/06/22 03:19:46;;;;;;;4.85;2.05;;;;;;;;;;5031408;28;20076;-58
2022/06/22 03:22:22;;;;;;;4.63;2.17;;;;;;;;;;5029227;28;20040;-57
2022/06/22 03:24:59;;;;;;;4.40;2.05;;;;;;;;;;5023245;28;20096;-58
2022/06/22 03:27:29;;;;;;;3.05;2.20;;;;;;;;;;5030109;28;20392;-59
2022/06/22 03:29:57;;;;;;;4.40;2.45;;;;;;;;;;5030332;28;20025;-58
2022/06/22 03:32:31;;;;;;;2.97;1.85;;;;;;;;;;5024271;28;20477;-57
2022/06/22 03:35:02;;;;;;;3.15;2.00;;;;;;;;;;5030801;28;20029;-57
2022/06/22 03:37:33;;;;;;;3.70;1.67;;;;;;;;;;5028876;28;20029;-57
2022/06/22 03:40:02;;;;;;;2.08;1.80;;;;;;;;;;5030588;28;20060;-58
2022/06/22 03:42:34;;;;;;;3.97;2.10;;;;;;;;;;5029364;28;20025;-56
2022/06/22 03:45:16;;;;;;;5.07;2.08;;;;;;;;;;5030796;28;20026;-56
2022/06/22 03:47:49;;;;;;;4.22;1.85;;;;;;;;;;5029566;28;20026;-57
2022/06/22 03:50:27;;;;;;;3.78;2.10;;;;;;;;;;5030902;28;20097;-58
2022/06/22 03:52:58;;;;;;;6.72;2.20;;;;;;;;;;5029308;28;20072;-57
2022/06/22 03:55:27;;;;;;;2.72;2.05;;;;;;;;;;5032610;28;20566;-57
2022/06/22 03:57:55;;;;;;;3.67;2.03;;;;;;;;;;5030802;28;20077;-58
2022/06/22 04:00:22;;;;;;;2.72;2.20;;;;;;;;;;5029454;28;20120;-56
2022/06/22 04:02:49;;;;;;;6.13;2.15;;;;;;;;;;5030183;28;20096;-57
2022/06/22 04:05:23;;;;;;;6.80;2.20;;;;;;;;;;5025263;28;20040;-59
2022/06/22 04:07:49;;;;;;;2.90;2.20;;;;;;;;;;5029758;28;20085;-58
2022/06/22 04:10:23;;;;;;;4.35;2.15;;;;;;;;;;5028151;28;20540;-57
2022/06/22 04:12:49;;;;;;;3.60;2.58;;;;;;;;;;5024812;28;20040;-57
2022/06/22 04:15:18;;;;;;;4.05;2.15;;;;;;;;;;5030246;28;20429;-57
2022/06/22 04:17:49;;;;;;;7.63;2.15;;;;;;;;;;5027245;28;20061;-56
2022/06/22 04:20:49;;;;;;;3.22;1.95;;;;;;;;;;5029108;28;20083;-57
2022/06/22 04:23:19;;;;;;;3.67;2.42;;;;;;;;;;5029495;28;20540;-57
2022/06/22 04:25:46;;;;;;;4.03;2.38;;;;;;;;;;5024508;28;20128;-59
2022/06/22 04:28:14;;;;;;;3.30;2.30;;;;;;;;;;5027948;28;20374;-57
2022/06/22 04:30:46;;;;;;;4.20;2.78;;;;;;;;;;5028668;28;20409;-57
2022/06/22 04:33:28;;;;;;;3.95;2.92;;;;;;;;;;5024677;28;20029;-58
2022/06/22 04:36:01;;;;;;;3.97;2.25;;;;;;;;;;5027688;28;20021;-56
2022/06/22 04:38:47;;;;;;;2.80;2.40;;;;;;;;;;5027458;28;20092;-58
2022/06/22 04:41:13;;;;;;;6.10;2.70;;;;;;;;;;5022541;28;20120;-57
2022/06/22 04:43:39;;;;;;;2.22;1.98;;;;;;;;;;5029066;28;20034;-58
2022/06/22 04:46:07;;;;;;;4.90;2.58;;;;;;;;;;5025826;28;20049;-57
2022/06/22 04:48:38;;;;;;;3.03;2.40;;;;;;;;;;5028821;28;20548;-58
2022/06/22 04:51:06;;;;;;;3.63;2.20;;;;;;;;;;5028151;28;20022;-58
2022/06/22 04:53:37;;;;;;;5.13;2.30;;;;;;;;;;5029842;28;20484;-56
2022/06/22 04:56:05;;;;;;;5.05;2.08;;;;;;;;;;5027446;28;20044;-56
2022/06/22 04:58:46;;;;;;;3.97;1.92;;;;;;;;;;5026504;28;20088;-57
2022/06/22 05:01:16;;;;;;;4.60;2.03;;;;;;;;;;5025897;28;20029;-56
2022/06/22 05:03:42;;;;;;;3.35;2.05;;;;;;;;;;5026526;28;20040;-58
2022/06/22 05:06:14;;;;;;;7.53;2.42;;;;;;;;;;5027500;28;20489;-57
2022/06/22 05:08:43;;;;;;;2.40;2.15;;;;;;;;;;5026601;28;20025;-57
2022/06/22 05:11:14;;;;;;;3.05;2.40;;;;;;;;;;5028746;28;20032;-57
2022/06/22 05:13:42;;;;;;;4.07;2.38;;;;;;;;;;5024673;28;20123;-57
2022/06/22 05:16:12;;;;;;;3.05;2.47;;;;;;;;;;5027776;28;20584;-58
2022/06/22 05:18:39;;;;;;;3.30;2.13;;;;;;;;;;5037395;28;20033;-57
2022/06/22 05:21:05;;;;;;;4.65;2.38;;;;;;;;;;5028093;28;20064;-58
2022/06/22 05:23:32;;;;;;;5.88;2.75;;;;;;;;;;5028538;28;20029;-58
2022/06/22 05:26:00;;;;;;;6.13;2.58;;;;;;;;;;5018144;28;20049;-56
2022/06/22 05:28:33;;;;;;;4.80;2.97;;;;;;;;;;5026389;28;20025;-58
2022/06/22 05:31:04;;;;;;;4.18;2.85;;;;;;;;;;5024912;28;20543;-59
2022/06/22 05:33:30;;;;;;;4.70;3.03;;;;;;;;;;5026819;28;20029;-57
2022/06/22 05:36:03;;;;;;;5.00;2.60;;;;;;;;;;5029167;28;20365;-57
2022/06/22 05:38:29;;;;;;;2.97;2.17;;;;;;;;;;5029053;28;20104;-57
2022/06/22 05:40:56;;;;;;;5.70;2.33;;;;;;;;;;5027985;28;20563;-56
2022/06/22 05:43:23;;;;;;;3.67;2.40;;;;;;;;;;5028887;28;20492;-58
2022/06/22 05:45:57;;;;;;;4.22;2.25;;;;;;;;;;5026315;28;20037;-57
2022/06/22 05:48:25;;;;;;;4.55;2.70;;;;;;;;;;5021404;28;20100;-58
2022/06/22 05:50:51;;;;;;;4.32;2.60;;;;;;;;;;5026636;28;20103;-58
2022/06/22 05:53:23;;;;;;;3.60;2.33;;;;;;;;;;5031436;28;20025;-57
2022/06/22 05:56:02;;;;;;;4.47;2.20;;;;;;;;;;5027883;28;20112;-57
2022/06/22 05:58:38;;;;;;;5.25;1.95;;;;;;;;;;5031024;28;20031;-57
2022/06/22 06:01:06;;;;;;;6.15;2.63;;;;;;;;;;5026576;28;20508;-58
2022/06/22 06:03:35;;;;;;;5.72;2.25;;;;;;;;;;5031516;28;20031;-57
2022/06/22 06:06:06;;;;;;;3.60;1.70;;;;;;;;;;5034271;28;20543;-57
2022/06/22 06:08:38;;;;;;;9.25;2.70;;;;;;;;;;5031789;28;20481;-57
2022/06/22 06:11:05;;;;;;;3.85;2.03;;;;;;;;;;5031784;28;20025;-58
2022/06/22 06:13:40;;;;;;;8.82;2.00;;;;;;;;;;5028958;28;20417;-57
2022/06/22 06:16:13;;;;;;;4.90;1.70;;;;;;;;;;5028678;28;20052;-58
2022/06/22 06:18:41;;;;;;;2.13;1.40;;;;;;;;;;5031947;28;20037;-58
2022/06/22 06:21:09;;;;;;;7.40;1.63;;;;;;;;;;5032547;28;20105;-56
2022/06/22 06:23:39;;;;;;;4.30;1.60;;;;;;;;;;5032423;28;20086;-57
2022/06/22 06:29:00;;;;;;;2.92;1.42;;;;;;;;;;5029873;28;20087;-57
2022/06/22 06:31:30;;;;;;;4.05;1.67;;;;;;;;;;5025375;28;20081;-59
2022/06/22 06:33:56;;;;;;;1.88;1.02;;;;;;;;;;5029953;28;20031;-57
2022/06/22 06:36:29;;;;;;;3.97;1.30;;;;;;;;;;5027703;28;20029;-59
2022/06/22 06:39:02;;;;;;;5.15;1.27;;;;;;;;;;5027226;28;20040;-58
2022/06/22 06:41:38;;;;;;;4.35;1.20;;;;;;;;;;5031913;28;20491;-57
2022/06/22 06:44:09;;;;;;;6.75;1.50;;;;;;;;;;5032484;28;20505;-58
2022/06/22 06:46:41;;;;;;;5.30;1.20;;;;;;;;;;5026559;28;20492;-58
2022/06/22 06:49:10;;;;;;;1.27;0.90;;;;;;;;;;5031110;28;20167;-57
2022/06/22 06:51:38;;;;;;;4.13;1.08;;;;;;;;;;5032208;28;20029;-57
2022/06/22 06:54:15;;;;;;;3.20;0.80;;;;;;;;;;5026535;28;20033;-57
2022/06/22 06:56:46;;;;;;;3.08;1.00;;;;;;;;;;5028970;28;20034;-56
2022/06/22 06:59:14;;;;;;;6.47;1.10;;;;;;;;;;5023628;28;20029;-57
2022/06/22 07:01:40;;;;;;;3.47;1.10;;;;;;;;;;5026611;28;20116;-57
2022/06/22 07:04:09;;;;;;;3.42;0.80;;;;;;;;;;5029763;28;20101;-57
2022/06/22 07:06:35;;;;;;;3.05;0.93;;;;;;;;;;5028774;28;20496;-57
2022/06/22 07:09:13;;;;;;;2.70;0.65;;;;;;;;;;5029989;28;20033;-57
2022/06/22 07:11:48;;;;;;;4.47;1.10;;;;;;;;;;5028780;28;20032;-57
2022/06/22 07:14:14;;;;;;;4.78;0.82;;;;;;;;;;5025190;28;20485;-57
2022/06/22 07:16:41;;;;;;;1.80;1.00;;;;;;;;;;5032318;28;20036;-56
2022/06/22 07:19:19;;;;;;;4.25;1.10;;;;;;;;;;5031180;28;20543;-57
2022/06/22 07:21:49;;;;;;;4.15;0.88;;;;;;;;;;5028421;28;20545;-57
2022/06/22 07:24:15;;;;;;;4.07;1.05;;;;;;;;;;5028033;28;20079;-56
2022/06/22 07:26:41;;;;;;;4.28;0.80;;;;;;;;;;5011153;28;20042;-57
2022/06/22 07:29:27;;;;;;;6.18;0.98;;;;;;;;;;5008963;28;20508;-57
2022/06/22 07:31:55;;;;;;;4.40;1.25;;;;;;;;;;5003625;28;20038;-60
2022/06/22 07:34:36;;;;;;;4.82;1.25;;;;;;;;;;5016040;28;20080;-58
2022/06/22 07:37:12;;;;;;;4.03;1.02;;;;;;;;;;4993184;28;20034;-58
2022/06/22 07:39:41;;;;;;;2.38;0.70;;;;;;;;;;5003146;28;20116;-57
2022/06/22 07:42:07;;;;;;;6.80;0.88;;;;;;;;;;5012892;28;20477;-57
2022/06/22 07:44:34;;;;;;;4.75;0.95;;;;;;;;;;5008778;28;20037;-56
2022/06/22 07:47:16;;;;;;;2.80;0.80;;;;;;;;;;5015961;28;20392;-57
2022/06/22 07:49:50;;;;;;;1.63;0.50;;;;;;;;;;5004249;28;20170;-58
2022/06/22 07:52:17;;;;;;;2.58;0.80;;;;;;;;;;5004650;28;20029;-56
2022/06/22 07:54:46;;;;;;;4.78;0.70;;;;;;;;;;5008917;28;20030;-57
2022/06/22 07:57:18;;;;;;;3.33;0.90;;;;;;;;;;5005711;28;20092;-55
2022/06/22 07:59:50;;;;;;;3.72;0.95;;;;;;;;;;5004921;28;20490;-58
2022/06/22 08:02:17;;;;;;;5.82;1.00;;;;;;;;;;5010490;28;20127;-56
2022/06/22 08:04:46;;;;;;;5.00;1.08;;;;;;;;;;5009812;28;20085;-57
2022/06/22 08:07:32;;;;;;;2.88;0.68;;;;;;;;;;5006045;28;20040;-57
2022/06/22 08:10:03;;;;;;;4.45;0.85;;;;;;;;;;5005018;28;20037;-56
2022/06/22 08:12:32;;;;;;;2.67;0.73;;;;;;;;;;5009826;28;20029;-55
2022/06/22 08:14:59;;;;;;;2.45;0.85;;;;;;;;;;5008152;28;20034;-56
2022/06/22 08:17:37;;;;;;;6.70;0.98;;;;;;;;;;5009546;28;20029;-66
2022/06/22 08:20:04;;;;;;;1.90;0.70;;;;;;;;;;5007898;28;20169;-57
2022/06/22 08:22:30;;;;;;;3.30;1.10;;;;;;;;;;5008611;28;20028;-53
2022/06/22 08:24:58;;;;;;;5.30;0.88;;;;;;;;;;5012224;28;20389;-58
2022/06/22 08:27:25;;;;;;;5.53;1.15;;;;;;;;;;5022415;28;20042;-57
2022/06/22 08:29:53;;;;;;;1.80;1.05;;;;;;;;;;5027054;28;20033;-56
2022/06/22 08:32:31;;;;;;;3.13;1.25;;;;;;;;;;5028507;28;20027;-57
2022/06/22 08:35:01;;;;;;;5.40;0.65;;;;;;;;;;5023671;28;20049;-57
2022/06/22 08:37:30;;;;;;;3.00;0.90;;;;;;;;;;5009748;28;20033;-57
2022/06/22 08:40:03;;;;;;;2.70;0.90;;;;;;;;;;5029710;28;20035;-57
2022/06/22 08:42:41;;;;;;;2.72;0.90;;;;;;;;;;5030332;28;20551;-56
2022/06/22 08:45:13;;;;;;;1.67;0.63;;;;;;;;;;5020095;28;20041;-57
2022/06/22 08:47:42;;;;;;;1.70;0.57;;;;;;;;;;5028685;28;20028;-57
2022/06/22 08:50:27;;;;;;;3.45;0.70;;;;;;;;;;5028824;28;20531;-57
2022/06/22 08:52:53;;;;;;;3.45;0.75;;;;;;;;;;5022500;28;20025;-56
2022/06/22 08:55:39;;;;;;;1.02;0.63;;;;;;;;;;5027581;28;20509;-57
2022/06/22 08:58:24;;;;;;;3.97;0.98;;;;;;;;;;5021151;28;20385;-58
2022/06/22 09:01:14;;;;;;;2.40;0.73;;;;;;;;;;5025729;28;20564;-56
2022/06/22 09:03:54;;;;;;;6.25;0.82;;;;;;;;;;5009823;28;20037;-57
2022/06/22 09:06:34;;;;;;;4.55;0.80;;;;;;;;;;5030264;28;20037;-59
2022/06/22 09:09:07;;;;;;;4.63;1.10;;;;;;;;;;5028405;28;20034;-58
2022/06/22 09:11:39;;;;;;;2.70;0.73;;;;;;;;;;5029792;28;20036;-58
2022/06/22 09:14:07;;;;;;;3.75;0.82;;;;;;;;;;5030790;28;20029;-58
2022/06/22 09:16:41;;;;;;;1.98;0.60;;;;;;;;;;5027623;28;20424;-57
2022/06/22 09:19:25;;;;;;;2.47;0.90;;;;;;;;;;5030458;28;20495;-57
2022/06/22 09:22:01;;;;;;;3.72;0.75;;;;;;;;;;5029963;28;20416;-58
2022/06/22 09:24:37;;;;;;;2.65;0.70;;;;;;;;;;5030683;28;20025;-57
2022/06/22 09:27:16;;;;;;;3.67;0.80;;;;;;;;;;5023756;28;20041;-56
2022/06/22 09:30:00;;;;;;;3.08;0.77;;;;;;;;;;5033840;28;20370;-57
2022/06/22 09:32:36;;;;;;;3.67;0.63;;;;;;;;;;5032591;28;20025;-58
2022/06/22 09:35:24;;;;;;;6.00;0.80;;;;;;;;;;5026816;28;20060;-57
2022/06/22 09:37:56;;;;;;;4.95;1.00;;;;;;;;;;5031232;28;20472;-58
2022/06/22 09:40:34;;;;;;;2.17;0.65;;;;;;;;;;5013771;28;20495;-58
2022/06/22 09:43:13;;;;;;;2.53;0.60;;;;;;;;;;5028472;28;20055;-57
2022/06/22 09:45:49;;;;;;;1.58;0.70;;;;;;;;;;5032924;28;20030;-56
2022/06/22 09:48:34;;;;;;;1.08;0.65;;;;;;;;;;5027518;28;20021;-57
2022/06/22 09:51:08;;;;;;;3.42;0.77;;;;;;;;;;5031655;28;20038;-57
2022/06/22 09:53:41;;;;;;;1.90;0.70;;;;;;;;;;5032271;28;20113;-57
2022/06/22 09:56:22;;;;;;;2.55;0.70;;;;;;;;;;5034099;28;20033;-57
2022/06/22 09:59:02;;;;;;;3.85;0.70;;;;;;;;;;5013561;28;20120;-58
2022/06/22 10:01:39;;;;;;;2.88;0.50;;;;;;;;;;5030071;28;20026;-58
2022/06/22 10:04:36;;;;;;;2.60;0.75;;;;;;;;;;5031852;28;20090;-57
2022/06/22 10:07:25;;;;;;;3.63;0.70;;;;;;;;;;5031109;28;21719;-58
2022/06/22 10:10:11;;;;;;;1.27;0.40;;;;;;;;;;5032346;28;20110;-57
2022/06/22 10:12:56;;;;;;;1.08;0.40;;;;;;;;;;5022407;28;20037;-56
2022/06/22 10:15:40;;;;;;;2.67;0.60;;;;;;;;;;5032443;28;20033;-57
2022/06/22 10:18:08;;;;;;;2.25;0.75;;;;;;;;;;5010002;28;20040;-57
2022/06/22 10:20:56;;;;;;;2.65;0.50;;;;;;;;;;5029890;28;20084;-57
2022/06/22 10:23:40;;;;;;;2.50;1.02;;;;;;;;;;5030656;28;20112;-57
2022/06/22 10:26:18;;;;;;;1.88;0.70;;;;;;;;;;5028719;28;20538;-57
2022/06/22 10:29:03;;;;;;;6.85;0.95;;;;;;;;;;5024907;28;20099;-57
2022/06/22 10:31:34;;;;;;;3.22;0.80;;;;;;;;;;5028783;28;20037;-58
2022/06/22 10:34:11;;;;;;;3.40;0.80;;;;;;;;;;5028182;28;20034;-56
2022/06/22 10:36:46;;;;;;;2.60;0.60;;;;;;;;;;5024421;28;20524;-58
2022/06/22 10:39:26;;;;;;;3.55;0.73;;;;;;;;;;5036138;28;20039;-57
2022/06/22 10:45:08;;;;;;;1.60;0.40;;;;;;;;;;5031800;28;20087;-57
2022/06/22 10:47:34;;;;;;;2.10;0.57;;;;;;;;;;5033003;28;20087;-58
2022/06/22 10:50:26;;;;;;;5.93;0.75;;;;;;;;;;5030999;28;20408;-58
2022/06/22 10:53:11;;;;;;;2.13;0.75;;;;;;;;;;5025385;28;20052;-55
2022/06/22 10:55:42;;;;;;;3.47;0.70;;;;;;;;;;5031609;28;20030;-58
2022/06/22 10:58:35;;;;;;;2.22;0.60;;;;;;;;;;5030871;28;20033;-57
2022/06/22 11:01:19;;;;;;;2.03;0.70;;;;;;;;;;5028119;28;20112;-58
2022/06/22 11:04:02;;;;;;;2.10;0.57;;;;;;;;;;5026551;28;20033;-56
2022/06/22 11:06:47;;;;;;;5.30;0.82;;;;;;;;;;5031287;28;20136;-57
2022/06/22 11:09:30;;;;;;;2.30;0.47;;;;;;;;;;5025877;28;20091;-58
2022/06/22 11:12:03;;;;;;;1.35;0.60;;;;;;;;;;5029269;28;20538;-58
2022/06/22 11:14:48;;;;;;;3.92;0.70;;;;;;;;;;5025531;28;20060;-57
2022/06/22 11:17:14;;;;;;;1.90;0.45;;;;;;;;;;5030511;28;20034;-57
2022/06/22 11:19:44;;;;;;;1.75;0.57;;;;;;;;;;5023923;28;20033;-56
2022/06/22 11:22:26;;;;;;;2.65;0.60;;;;;;;;;;5030560;28;20041;-57
2022/06/22 11:25:11;;;;;;;4.35;0.80;;;;;;;;;;5028066;28;20116;-57
2022/06/22 11:30:57;;;;;;;2.35;0.55;;;;;;;;;;5033128;28;20092;-58
2022/06/22 11:33:42;;;;;;;5.38;0.80;;;;;;;;;;5028941;28;20025;-58
2022/06/22 11:36:18;;;;;;;1.50;0.60;;;;;;;;;;5029201;28;20392;-56
2022/06/22 11:39:01;;;;;;;1.35;0.52;;;;;;;;;;5023498;28;20824;-57
2022/06/22 11:41:29;;;;;;;;;;;;;;;;;;5034070;28;20025;-57
2022/06/22 11:43:58;;;;;;;2.95;0.55;;;;;;;;;;5034679;28;19920;-56
2022/06/22 11:46:31;;;;;;;1.83;0.60;;;;;;;;;;5027951;28;20029;-57
2022/06/22 11:49:06;;;;;;;2.35;0.57;;;;;;;;;;5027715;28;20029;-57
2022/06/22 11:51:39;;;;;;;2.22;0.57;;;;;;;;;;5017407;28;20106;-58
2022/06/22 11:54:28;;;;;;;2.15;0.43;;;;;;;;;;5028897;28;20029;-55
2022/06/22 11:57:00;;;;;;;2.15;0.55;;;;;;;;;;5030324;28;20044;-56
2022/06/22 11:59:45;;;;;;;3.70;0.80;;;;;;;;;;5029940;28;20025;-57
2022/06/22 12:02:14;;;;;;;3.50;0.68;;;;;;;;;;5026369;28;20548;-59
2022/06/22 12:04:52;;;;;;;5.93;1.10;;;;;;;;;;5028184;28;20550;-60
2022/06/22 12:07:36;;;;;;;4.32;0.65;;;;;;;;;;5027147;28;20496;-58
2022/06/22 12:10:11;;;;;;;2.10;0.52;;;;;;;;;;5027429;28;20035;-58
2022/06/22 12:12:51;;;;;;;2.10;0.30;;;;;;;;;;5023543;28;20093;-59
2022/06/22 12:15:29;;;;;;;1.65;0.60;;;;;;;;;;5025022;28;20068;-60
2022/06/22 12:18:05;;;;;;;5.45;0.40;;;;;;;;;;5028052;28;20496;-58
2022/06/22 12:20:50;;;;;;;3.60;0.52;;;;;;;;;;5029214;28;20156;-58
2022/06/22 12:23:19;;;;;;;2.38;0.82;;;;;;;;;;5033334;28;20029;-58
2022/06/22 12:25:54;;;;;;;3.88;0.75;;;;;;;;;;5024414;28;20041;-59
2022/06/22 12:28:32;;;;;;;3.28;0.43;;;;;;;;;;5026200;28;20057;-58
2022/06/22 12:31:18;;;;;;;2.58;0.40;;;;;;;;;;5027916;28;20136;-58
2022/06/22 12:33:50;;;;;;;1.15;0.57;;;;;;;;;;5028152;28;20120;-58
2022/06/22 12:36:20;;;;;;;3.03;0.80;;;;;;;;;;5027763;28;20117;-59
2022/06/22 12:38:52;;;;;;;2.58;0.70;;;;;;;;;;5027502;28;20079;-58
2022/06/22 12:41:33;;;;;;;4.35;0.60;;;;;;;;;;5029308;28;20049;-57
2022/06/22 12:44:25;;;;;;;5.93;0.75;;;;;;;;;;5022545;28;20030;-57
2022/06/22 12:47:00;;;;;;;2.92;0.50;;;;;;;;;;5028117;28;20132;-58
2022/06/22 12:49:45;;;;;;;3.45;0.65;;;;;;;;;;5030457;28;20018;-58
2022/06/22 12:52:15;;;;;;;3.95;0.73;;;;;;;;;;5029006;28;20029;-57
2022/06/22 12:54:47;;;;;;;3.03;0.60;;;;;;;;;;5027889;28;20033;-57
2022/06/22 12:57:18;;;;;;;2.30;0.65;;;;;;;;;;5027921;28;20025;-58
2022/06/22 12:59:47;;;;;;;1.60;0.50;;;;;;;;;;5021950;28;20026;-57
2022/06/22 13:02:16;;;;;;;1.25;0.40;;;;;;;;;;5023023;28;20044;-58
2022/06/22 13:04:43;;;;;;;1.17;0.40;;;;;;;;;;5028691;28;20033;-59
2022/06/22 13:07:14;;;;;;;3.65;0.35;;;;;;;;;;5020709;28;20026;-57
2022/06/22 13:09:41;;;;;;;3.85;0.60;;;;;;;;;;5032245;28;20029;-57
2022/06/22 13:12:39;;;;;;;7.28;0.65;;;;;;;;;;5022669;28;20053;-58
2022/06/22 13:15:07;;;;;;;0.70;0.30;;;;;;;;;;4990877;28;20046;-57
2022/06/22 13:17:33;;;;;;;3.60;0.50;;;;;;;;;;5025902;28;20033;-59
2022/06/22 13:20:29;;;;;;;0.90;0.40;;;;;;;;;;5028779;28;20033;-57
2022/06/22 13:23:02;;;;;;;1.45;0.50;;;;;;;;;;5013365;28;20461;-58
2022/06/22 13:25:45;;;;;;;1.73;0.40;;;;;;;;;;4996422;28;979104;-57
2022/06/22 13:28:24;;;;;;;1.77;0.47;;;;;;;;;;5036362;28;20018;-58
2022/06/22 13:30:52;;;;;;;0.85;0.40;;;;;;;;;;5033492;28;20025;-58
2022/06/22 13:33:25;;;;;;;2.67;0.55;;;;;;;;;;5031104;28;20046;-59
2022/06/22 13:35:53;;;;;;;1.73;0.52;;;;;;;;;;5030688;28;20033;-60
2022/06/22 13:38:19;;;;;;;3.13;0.68;;;;;;;;;;5031467;28;20030;-59
2022/06/22 13:40:51;;;;;;;1.83;0.43;;;;;;;;;;5031427;28;20393;-58
2022/06/22 13:43:21;;;;;;;2.23;0.73;;;;;;;;;;5029400;28;20112;-57
2022/06/22 13:45:59;;;;;;;1.38;0.40;;;;;;;;;;5032977;28;20038;-56
2022/06/22 13:48:33;;;;;;;1.33;0.50;;;;;;;;;;5030292;28;20021;-57
2022/06/22 13:51:28;;;;;;;1.73;0.30;;;;;;;;;;5023570;28;20508;-56
2022/06/22 13:54:12;;;;;;;1.88;0.75;;;;;;;;;;5032076;28;20026;-59
2022/06/22 13:56:56;;;;;;;2.03;0.47;;;;;;;;;;5033717;28;20504;-56
2022/06/22 13:59:37;;;;;;;2.60;0.50;;;;;;;;;;5032411;28;20034;-56
2022/06/22 14:02:12;;;;;;;3.00;0.47;;;;;;;;;;5030781;28;20033;-57
2022/06/22 14:04:42;;;;;;;2.50;0.60;;;;;;;;;;5033014;28;20029;-56
2022/06/22 14:07:13;;;;;;;0.73;0.25;;;;;;;;;;5026112;28;20079;-56
2022/06/22 14:09:52;;;;;;;2.05;0.35;;;;;;;;;;5029117;28;20044;-59
2022/06/22 14:12:20;;;;;;;2.42;0.40;;;;;;;;;;5031234;28;20060;-56
2022/06/22 14:14:58;;;;;;;5.55;0.57;;;;;;;;;;5031967;28;20037;-57
2022/06/22 14:17:27;;;;;;;1.63;0.43;;;;;;;;;;5030836;28;20041;-57
2022/06/22 14:20:12;;;;;;;3.30;0.50;;;;;;;;;;5030989;28;20091;-57
2022/06/22 14:22:40;;;;;;;2.20;0.35;;;;;;;;;;5031124;28;20034;-57
2022/06/22 14:25:14;;;;;;;3.28;0.60;;;;;;;;;;5030831;28;20527;-59
2022/06/22 14:27:50;;;;;;;0.57;0.30;;;;;;;;;;5030661;28;20135;-58
2022/06/22 14:30:16;;;;;;;1.50;0.40;;;;;;;;;;5031789;28;20034;-57
2022/06/22 14:32:57;;;;;;;0.95;0.35;;;;;;;;;;5045292;28;20111;-57
2022/06/22 14:35:34;;;;;;;2.63;0.47;;;;;;;;;;5025232;28;20159;-57
2022/06/22 14:37:59;;;;;;;1.55;0.40;;;;;;;;;;5028542;28;20037;-57
2022/06/22 14:40:29;;;;;;;3.63;0.60;;;;;;;;;;5030322;28;20495;-57
2022/06/22 14:43:04;;;;;;;2.45;0.50;;;;;;;;;;5031344;28;20026;-56
2022/06/22 14:45:30;;;;;;;2.03;0.70;;;;;;;;;;5028299;28;20029;-58
2022/06/22 14:48:15;;;;;;;3.55;0.47;;;;;;;;;;5031371;28;20529;-57
2022/06/22 14:50:56;;;;;;;2.58;0.60;;;;;;;;;;5031323;28;20447;-58
2022/06/22 14:53:43;;;;;;;2.05;0.30;;;;;;;;;;5031755;28;20477;-57
2022/06/22 14:56:17;;;;;;;1.77;0.40;;;;;;;;;;5031548;28;20040;-59
2022/06/22 14:58:48;;;;;;;2.45;0.52;;;;;;;;;;5031082;28;20039;-57
2022/06/22 15:01:17;;;;;;;1.52;0.60;;;;;;;;;;5030895;28;20041;-60
2022/06/22 15:03:51;;;;;;;2.53;0.57;;;;;;;;;;5030842;28;20039;-57
2022/06/22 15:06:17;;;;;;;3.13;0.75;;;;;;;;;;5018878;28;20428;-57
2022/06/22 15:08:47;;;;;;;1.63;0.50;;;;;;;;;;5032276;28;20071;-58
2022/06/22 15:14:13;;;;;;;2.75;0.47;;;;;;;;;;5032508;28;20087;-56
2022/06/22 15:16:42;;;;;;;1.20;0.45;;;;;;;;;;5031115;28;20692;-57
2022/06/22 15:19:09;;;;;;;5.40;1.40;;;;;;;;;;5027752;28;20570;-57
2022/06/22 15:21:39;;;;;;;1.75;0.60;;;;;;;;;;5030021;28;20370;-56
2022/06/22 15:24:23;;;;;;;6.18;0.60;;;;;;;;;;5028702;28;20113;-56
2022/06/22 15:26:59;;;;;;;2.75;0.80;;;;;;;;;;5012478;28;20057;-57
2022/06/22 15:29:31;;;;;;;2.17;0.80;;;;;;;;;;5025811;28;20727;-56
2022/06/22 15:31:58;;;;;;;1.80;0.60;;;;;;;;;;5029117;28;20424;-57
2022/06/22 15:34:31;;;;;;;1.83;0.63;;;;;;;;;;5027486;28;20033;-56
2022/06/22 15:37:00;;;;;;;2.83;1.00;;;;;;;;;;5029465;28;20034;-56
2022/06/22 15:39:32;;;;;;;2.00;0.65;;;;;;;;;;5034661;28;20523;-57